(706) 295-7835

For Pilots

METAR

KRMG 230753Z AUTO 23003KT 9SM CLR 23/22 A2996 RMK AO2 SLP134 T02330222

Location & Communications

Get detailed information about the airport, provided by AirNav.

Pilot Services

We have fuel services, on-site repair and maintenance, 24-hour security and more.

Fuel Points

Russell Regional Airport is a Shell Aviation merchant and is proud to participate in the Shell Aero Class Rewards program!

Today's Fuel Prices

Jet A $4.65 / gallon
AvGas (100LL) $4.39 / gallon
Self Serve AvGas $3.99 / gallon
Learn about fuel points program